Nearby METAR Reports

 

ENCN - Kristiansand/Kje, Norway
Distance from station: N 17km
aktuell: 14/07/2020 14:20
stark bewölkt
stark bewölkt
 Wind von SSO
Wind: SSO 11 km/h
Temperatur: 16°C
Taupunkt: 13°C
Luftfeuchte: 83%
Luftdruck: 1009 hPa
Clouds: stark bewölkt
Visibility: 10 km
Cloud details: teilweise bewölkt 335 m
stark bewölkt 579 m
2020/07/14 12:20 ENCN 141220Z 16006KT 9999 SCT011 BKN019 16/13 Q1009
EKSN - Sindal Airport, Denmark
Distance from station: OSO 145km
aktuell: 14/07/2020 13:50
geschlossene Wolkendecke
geschlossene Wolkendecke
 Wind von S
Wind: S 17 km/h
Temperatur: 17°C
Taupunkt: 16°C
Luftfeuchte: 94%
Luftdruck: 1010 hPa
Clouds: geschlossene Wolkendecke
Visibility: 10 km
Cloud details: Few Clouds 213 m
geschlossene Wolkendecke 579 m
2020/07/14 11:50 EKSN 141150Z 18009KT 9999 FEW007 OVC019 17/16 Q1010
 
EKYT - Alborg, Denmark
Distance from station: SO 153km
aktuell: 14/07/2020 14:20
stark bewölkt
stark bewölkt
 Wind von S
Wind: S 17 km/h
Temperatur: 16°C
Taupunkt: 15°C
Luftfeuchte: 94%
Luftdruck: 1010 hPa
Clouds: stark bewölkt
Visibility: 10 km
Cloud details: Few Clouds 305 m
stark bewölkt 396 m
stark bewölkt 518 m
2020/07/14 12:20 EKYT 141220Z AUTO 19009KT 9999 FEW010/// BKN013/// BKN017/// 16/15 Q1010
ENSN - Skien/Geiterygge, Norway
Distance from station: NO 153km
aktuell: 09/11/2015 09:50
NOT Current
klar
klar
 Wind von SSW
Wind: SSW 19 km/h, Windböen: 41 km/h
Temperatur: 7°C
Wind Chill: 4°C
Taupunkt: 3°C
Luftfeuchte: 76%
Luftdruck: 1000 hPa
Zusammenfassung: klar
Visibility: greater than 10 km
2015/11/09 08:50 ENSN 090850Z 20010G22KT 150V240 CAVOK 07/03 Q1000
 
ENZV - Stavanger/Sola(A, Norway
Distance from station: NW 166km
aktuell: 14/07/2020 14:20
Nearby showers, stark bewölkt
Nearby showers, stark bewölkt
 Wind von WNW
Wind: WNW 15 km/h
Temperatur: 15°C
Taupunkt: 13°C
Luftfeuchte: 88%
Luftdruck: 1009 hPa
Zusammenfassung: Nearby Showers
Clouds: stark bewölkt
Visibility: 10 km
Cloud details: Few Clouds 305 m
teilweise bewölkt 457 m
stark bewölkt 1829 m
2020/07/14 12:20 ENZV 141220Z 30008KT 9999 VCSH FEW010 SCT015CB BKN060 15/13 Q1009 NOSIG
ENNO - Notodden, Norway
Distance from station: NNO 182km
aktuell: 14/07/2020 13:50
Nearby showers, stark bewölkt
Nearby showers, stark bewölkt
 Wind von SO
Wind: SO 6 km/h
Temperatur: 17°C
Taupunkt: 12°C
Luftfeuchte: 73%
Luftdruck: 1008 hPa
Zusammenfassung: Nearby Showers
Clouds: stark bewölkt
Visibility: 10 km
Cloud details: Few Clouds 457 m
teilweise bewölkt 610 m
stark bewölkt 1372 m
2020/07/14 11:50 ENNO 141150Z 13003KT 9999 VCSH FEW015 SCT020 BKN045 17/12 Q1008
 
ENTO - Torp (civ/Nor-Af, Norway
Distance from station: NO 183km
aktuell: 14/07/2020 14:20
stark bewölkt
stark bewölkt
 Wind von SSW
Wind: SSW 7 km/h
Temperatur: 16°C
Taupunkt: 12°C
Luftfeuchte: 77%
Luftdruck: 1009 hPa
Clouds: stark bewölkt
Visibility: 10 km
Cloud details: teilweise bewölkt 335 m
stark bewölkt 549 m
2020/07/14 12:20 ENTO 141220Z 21004KT 140V240 9999 SCT011 BKN018 16/12 Q1009 NOSIG
EKKA - Karup (dan-Afb), Denmark
Distance from station: SSO 209km
aktuell: 14/07/2020 14:20
sehr leichter Niederschlag, Showers, teilweise bewölkt
sehr leichter Niederschlag, Showers, teilweise bewölkt
 Wind von S
Wind: S 13 km/h
Temperatur: 15°C
Taupunkt: 15°C
Luftfeuchte: 100%
Luftdruck: 1011 hPa
Zusammenfassung: sehr leichter Niederschlag, Showers
Clouds: teilweise bewölkt
Visibility: 5 km
Cloud details: stark bewölkt 183 m
teilweise bewölkt 610 m
2020/07/14 12:20 EKKA 141220Z 19007KT 160V220 5000 -SHRA BKN006 SCT020CB 15/15 Q1011 TEMPO 9999 BKN007
 
ENHD - Haugesund/Karmoy, Norway
Distance from station: NW 216km
aktuell: 14/07/2020 14:20
sehr leichter Niederschlag, Few clouds
sehr leichter Niederschlag, Few clouds
 Wind von WNW
Wind: WNW 9 km/h
Temperatur: 13°C
Taupunkt: 12°C
Luftfeuchte: 94%
Luftdruck: 1009 hPa
Zusammenfassung: sehr leichter Niederschlag
Clouds: Few Clouds
Visibility: 10 km
Cloud details: Few Clouds 0 m
2020/07/14 12:20 ENHD 141220Z AUTO 30005KT 9999 -RA FEW000/// 13/12 Q1009
ENRY - Rygge (nor-Afb), Norway
Distance from station: NO 216km
aktuell: 14/07/2020 14:20
stark bewölkt
stark bewölkt
 Wind von SO
Wind: SO 11 km/h
Temperatur: 14°C
Taupunkt: 13°C
Luftfeuchte: 94%
Luftdruck: 1010 hPa
Clouds: stark bewölkt
Visibility: 10 km
Cloud details: stark bewölkt 91 m
2020/07/14 12:20 ENRY 141220Z 13006KT 9999 BKN003 14/13 Q1010 TEMPO BKN005
 
ESGP - Goteborg/Save (a, Sweden
Distance from station: O 230km
aktuell: 02/01/2017 11:20
NOT Current
klar
klar
 Wind von calm
Wind: Windstill
Temperatur: -2°C
Taupunkt: -4°C
Luftfeuchte: 86%
Luftdruck: 1012 hPa
Clouds: klar
Visibility: 10 km
2017/01/02 10:20 ESGP 021020Z AUTO 00000KT 9999 NCD M02/M04 Q1012
EKVJ - Stauning Airport, Denmark
Distance from station: S 233km
aktuell: 14/07/2020 13:50
stark bewölkt
stark bewölkt
 Wind von W
Wind: W 17 km/h
Temperatur: 17°C
Taupunkt: 15°C
Luftfeuchte: 88%
Luftdruck: 1012 hPa
Clouds: stark bewölkt
Visibility: 10 km
Cloud details: teilweise bewölkt 274 m
stark bewölkt 762 m
2020/07/14 11:50 EKVJ 141150Z 26009KT 9999 SCT009 BKN025 17/15 Q1012
 
ENSO - Stord/Soerstokke, Norway
Distance from station: NW 246km
aktuell: 14/07/2020 14:20
sehr leichter Niederschlag, stark bewölkt
sehr leichter Niederschlag, stark bewölkt
 Wind von W
Wind: W 6 km/h
Temperatur: 15°C
Taupunkt: 15°C
Luftfeuchte: 100%
Luftdruck: 1009 hPa
Zusammenfassung: sehr leichter Niederschlag
Clouds: stark bewölkt
Visibility: 10 km
Cloud details: stark bewölkt 274 m
2020/07/14 12:20 ENSO 141220Z 27003KT 210V320 9999 -RA BKN009 15/15 Q1009
EKAH - Tirstrup (civ/Mi, Denmark
Distance from station: SO 252km
aktuell: 14/07/2020 14:20
stark bewölkt
stark bewölkt
 Wind von S
Wind: S 7 km/h
Temperatur: 16°C
Taupunkt: 14°C
Luftfeuchte: 88%
Luftdruck: 1012 hPa
Clouds: stark bewölkt
Visibility: 10 km
Cloud details: stark bewölkt 244 m
stark bewölkt 1920 m
2020/07/14 12:20 EKAH 141220Z AUTO 19004KT 120V260 9999NDV BKN008/// BKN063/// 16/14 Q1012
 
ESGT - Trollhattan (pvt, Sweden
Distance from station: O 255km
aktuell: 14/07/2020 14:20
Drizzle, geschlossene Wolkendecke
Drizzle, geschlossene Wolkendecke
 Wind von S
Wind: S 19 km/h
Temperatur: 15°C
Taupunkt: 13°C
Luftfeuchte: 88%
Luftdruck: 1011 hPa
Zusammenfassung: Drizzle
Clouds: geschlossene Wolkendecke
Visibility: 10 km
Cloud details: Few Clouds 91 m
geschlossene Wolkendecke 213 m
2020/07/14 12:20 ESGT 141220Z AUTO 19010KT 9999 R15/P2000N R33///// DZ FEW003/// OVC007/// 15/13 Q1011 RESHUP REDZ RERA
ESGG - Goteborg/Landvet, Sweden
Distance from station: O 257km
aktuell: 14/07/2020 14:20
Drizzle, stark bewölkt
Drizzle, stark bewölkt
 Wind von S
Wind: S 20 km/h
Temperatur: 13°C
Taupunkt: 12°C
Luftfeuchte: 94%
Luftdruck: 1012 hPa
Zusammenfassung: Drizzle
Clouds: stark bewölkt
Visibility: 10 km
Cloud details: stark bewölkt 183 m
2020/07/14 12:20 ESGG 141220Z 19011KT 9999 DZ BKN006 13/12 Q1012
 
EKBI - Billund Airport, Denmark
Distance from station: SSO 269km
aktuell: 14/07/2020 14:20
geschlossene Wolkendecke
geschlossene Wolkendecke
 Wind von S
Wind: S 15 km/h
Temperatur: 15°C
Taupunkt: 14°C
Luftfeuchte: 94%
Luftdruck: 1011 hPa
Clouds: geschlossene Wolkendecke
Visibility: 9 km
Cloud details: geschlossene Wolkendecke 183 m
2020/07/14 12:20 EKBI 141220Z AUTO 18008KT 160V220 9000 OVC006/// 15/14 Q1011
EKHN - Horns Rev B Heli, Denmark
Distance from station: S 274km
aktuell: 09/08/2016 14:20
NOT Current
Few Clouds
Few Clouds
 Wind von WNW
Wind: WNW 50 km/h, Windböen: 72 km/h
Temperatur: 14°C
Taupunkt: 10°C
Luftfeuchte: 77%
Luftdruck: 1018 hPa
Clouds: Few Clouds
Visibility: 10 km
Cloud details: Few Clouds 1158 m
Few Clouds 2438 m
2016/08/09 12:20 EKHN 091220Z AUTO 29027G39KT 270V340 9999NDV FEW038/// FEW080/// 14/10 Q1018
 
ESIB - Satenas (swe-Afb, Sweden
Distance from station: O 277km
aktuell: 14/07/2020 14:20
Drizzle, geschlossene Wolkendecke
Drizzle, geschlossene Wolkendecke
 Wind von S
Wind: S 22 km/h
Temperatur: 15°C
Taupunkt: 15°C
Luftfeuchte: 100%
Luftdruck: 1011 hPa
Zusammenfassung: Drizzle
Clouds: geschlossene Wolkendecke
Visibility: 10 km
Cloud details: stark bewölkt 335 m
stark bewölkt 427 m
geschlossene Wolkendecke 518 m
2020/07/14 12:20 ESIB 141220Z AUTO 18012KT 9999 DZ BKN011/// BKN014/// OVC017/// 15/15 Q1011
EKHR - Horns Rev B Heli, Denmark
Distance from station: S 282km
aktuell: 04/10/2016 06:20
NOT Current
klar
klar
 Wind von O
Wind: O 4 km/h
Temperatur: 11°C
Taupunkt: -49°C
Luftfeuchte: 0%
Luftdruck: 1038 hPa
Clouds: klar
Visibility: 10 km
2016/10/04 04:20 EKHR 040420Z AUTO 08002KT 9999NDV NCD 11/M49 Q1038